Time;durP1;ratioP1;P1;durP2;ratioP2;P2;SDS_P1;SDS_P2;PMS_P1;PMS_P2;Temp;Humidity;BMP_temperature;BMP_pressure;BME280_temperature;BME280_humidity;BME280_pressure;Samples;Min_cycle;Max_cycle;Signal;HPM_P1;HPM_P2
2020/12/21 00:01:16;;;;;;;4.17;2.97;;;20.40;55.50;;;;;;5021120;28;20486;-71
2020/12/21 00:03:42;;;;;;;2.87;2.60;;;20.40;54.80;;;;;;5037241;28;20928;-71
2020/12/21 00:06:10;;;;;;;3.43;3.20;;;20.40;54.60;;;;;;5050937;28;20872;-70
2020/12/21 00:08:37;;;;;;;3.90;3.17;;;20.50;54.30;;;;;;5050684;28;20509;-70
2020/12/21 00:11:03;;;;;;;3.73;2.97;;;20.50;54.20;;;;;;5043533;28;20863;-70
2020/12/21 00:13:30;;;;;;;3.60;3.10;;;20.50;54.30;;;;;;5029006;28;21346;-70
2020/12/21 00:15:56;;;;;;;2.60;2.40;;;20.50;54.10;;;;;;5013814;28;21001;-70
2020/12/21 00:18:22;;;;;;;3.67;3.47;;;20.50;54.10;;;;;;5049729;28;20474;-70
2020/12/21 00:20:48;;;;;;;3.80;2.67;;;20.50;54.90;;;;;;5043738;28;20497;-71
2020/12/21 00:23:15;;;;;;;2.70;2.50;;;20.50;54.40;;;;;;5039472;28;20516;-71
2020/12/21 00:25:41;;;;;;;4.23;2.83;;;20.40;54.40;;;;;;5055180;28;20488;-70
2020/12/21 00:28:07;;;;;;;3.53;3.23;;;20.40;54.50;;;;;;5051383;28;20494;-71
2020/12/21 00:30:34;;;;;;;3.10;2.90;;;20.40;54.30;;;;;;5052112;28;20481;-70
2020/12/21 00:33:00;;;;;;;4.10;3.70;;;20.40;54.10;;;;;;5050119;28;21006;-70
2020/12/21 00:35:27;;;;;;;2.63;2.40;;;20.40;54.00;;;;;;5056068;28;20486;-70
2020/12/21 00:37:53;;;;;;;3.40;3.10;;;20.30;54.00;;;;;;5030951;28;20554;-70
2020/12/21 00:40:19;;;;;;;2.77;2.57;;;20.30;53.90;;;;;;5051443;28;20502;-70
2020/12/21 00:42:46;;;;;;;3.47;2.60;;;20.30;54.60;;;;;;5023956;28;20610;-69
2020/12/21 00:45:12;;;;;;;2.53;2.40;;;20.30;54.80;;;;;;5009087;28;20932;-70
2020/12/21 00:47:43;;;;;;;2.80;2.70;;;20.30;54.70;;;;;;5029478;28;20521;-70
2020/12/21 00:50:10;;;;;;;5.63;2.63;;;20.30;54.60;;;;;;5046014;28;20481;-70
2020/12/21 00:52:36;;;;;;;3.73;3.40;;;20.30;54.10;;;;;;5020204;28;20486;-70
2020/12/21 00:55:02;;;;;;;2.83;2.63;;;20.30;54.50;;;;;;5030403;28;20485;-70
2020/12/21 00:57:31;;;;;;;2.50;2.40;;;20.30;54.70;;;;;;5038555;28;21013;-69
2020/12/21 00:59:57;;;;;;;2.60;2.40;;;20.30;54.20;;;;;;5035797;28;20504;-70
2020/12/21 01:02:23;;;;;;;5.13;2.83;;;20.30;54.20;;;;;;5031440;28;20554;-70
2020/12/21 01:04:50;;;;;;;2.53;2.43;;;20.30;54.20;;;;;;5036258;28;20489;-70
2020/12/21 01:07:17;;;;;;;3.30;2.67;;;20.30;54.00;;;;;;5055767;28;20462;-69
2020/12/21 01:09:46;;;;;;;3.30;2.93;;;20.30;53.80;;;;;;5052228;28;20910;-71
2020/12/21 01:12:12;;;;;;;4.80;2.70;;;20.30;54.10;;;;;;5019644;28;20568;-70
2020/12/21 01:14:39;;;;;;;3.70;3.20;;;20.30;53.80;;;;;;5045370;28;20524;-70
2020/12/21 01:17:05;;;;;;;2.60;2.50;;;20.30;53.70;;;;;;5039671;28;20993;-70
2020/12/21 01:19:31;;;;;;;3.73;2.87;;;20.30;53.80;;;;;;5046260;28;20911;-70
2020/12/21 01:21:58;;;;;;;3.83;2.57;;;20.30;53.80;;;;;;5039488;28;20835;-70
2020/12/21 01:24:24;;;;;;;3.90;3.00;;;20.30;53.80;;;;;;5042519;28;21203;-70
2020/12/21 01:26:50;;;;;;;3.50;3.20;;;20.30;53.80;;;;;;5044198;28;20594;-70
2020/12/21 01:29:16;;;;;;;3.20;2.90;;;20.30;53.80;;;;;;5069347;28;20480;-70
2020/12/21 01:31:43;;;;;;;2.83;2.63;;;20.30;54.00;;;;;;5056632;28;20482;-70
2020/12/21 01:34:09;;;;;;;4.43;2.83;;;20.20;53.80;;;;;;5042020;28;20478;-70
2020/12/21 01:36:35;;;;;;;2.40;2.30;;;20.20;53.90;;;;;;5040723;28;20491;-69
2020/12/21 01:39:02;;;;;;;3.40;3.10;;;20.20;54.00;;;;;;5038830;28;20542;-69
2020/12/21 01:41:29;;;;;;;3.43;2.93;;;20.30;54.40;;;;;;5042950;28;20490;-69
2020/12/21 01:43:55;;;;;;;3.40;3.10;;;20.30;54.30;;;;;;5044321;28;20482;-69
2020/12/21 01:46:21;;;;;;;4.13;2.90;;;20.30;54.10;;;;;;5041580;28;20498;-70
2020/12/21 01:48:47;;;;;;;6.07;3.20;;;20.30;54.20;;;;;;5043476;28;21017;-69
2020/12/21 01:51:20;;;;;;;2.47;2.37;;;20.30;54.20;;;;;;5040401;28;20994;-70
2020/12/21 01:53:46;;;;;;;2.87;2.73;;;20.30;53.90;;;;;;5038095;28;20552;-70
2020/12/21 01:56:13;;;;;;;3.60;3.27;;;20.30;53.70;;;;;;5043343;28;20494;-70
2020/12/21 01:58:39;;;;;;;5.53;2.80;;;20.40;53.80;;;;;;5045464;28;21025;-70
2020/12/21 02:01:05;;;;;;;3.37;2.70;;;20.40;53.80;;;;;;5048859;28;21117;-70
2020/12/21 02:03:31;;;;;;;2.93;2.70;;;20.40;53.50;;;;;;5050996;28;20571;-70
2020/12/21 02:05:58;;;;;;;2.67;2.40;;;20.40;53.70;;;;;;5051005;28;20564;-70
2020/12/21 02:08:24;;;;;;;2.23;2.13;;;20.40;53.90;;;;;;5049753;28;20861;-68
2020/12/21 02:10:50;;;;;;;3.00;2.80;;;20.30;53.80;;;;;;5050056;28;21015;-70
2020/12/21 02:13:17;;;;;;;3.40;2.37;;;20.30;53.50;;;;;;5049264;28;21075;-70
2020/12/21 02:15:43;;;;;;;4.60;2.90;;;20.30;53.50;;;;;;5058530;28;20468;-69
2020/12/21 02:18:09;;;;;;;3.13;2.10;;;20.30;53.70;;;;;;5058612;28;20485;-70
2020/12/21 02:20:36;;;;;;;2.60;2.40;;;20.30;54.20;;;;;;5071558;28;20492;-70
2020/12/21 02:23:02;;;;;;;4.20;2.50;;;20.30;54.10;;;;;;5066929;28;20481;-69
2020/12/21 02:25:28;;;;;;;2.80;2.63;;;20.30;53.50;;;;;;5058352;28;20478;-69
2020/12/21 02:27:55;;;;;;;2.33;2.23;;;20.30;53.50;;;;;;5041317;28;20494;-70
2020/12/21 02:30:21;;;;;;;2.20;2.10;;;20.40;53.30;;;;;;5050493;28;21212;-70
2020/12/21 02:32:47;;;;;;;2.23;2.13;;;20.40;53.40;;;;;;5036645;28;20857;-70
2020/12/21 02:35:13;;;;;;;2.73;2.53;;;20.40;53.60;;;;;;5040977;28;20473;-69
2020/12/21 02:37:40;;;;;;;2.97;2.27;;;20.30;53.50;;;;;;5045076;28;21399;-69
2020/12/21 02:40:07;;;;;;;2.10;1.90;;;20.40;53.50;;;;;;5046553;28;20478;-69
2020/12/21 02:42:33;;;;;;;2.23;2.13;;;20.30;53.40;;;;;;5052700;28;20489;-69
2020/12/21 02:44:59;;;;;;;2.70;2.50;;;20.30;53.50;;;;;;5049507;28;20491;-70
2020/12/21 02:47:25;;;;;;;3.63;2.23;;;20.30;53.50;;;;;;5050736;28;20498;-70
2020/12/21 02:49:51;;;;;;;2.33;2.23;;;20.30;53.50;;;;;;5049186;28;20490;-69
2020/12/21 02:52:17;;;;;;;1.77;1.77;;;20.30;53.50;;;;;;5046368;28;20546;-69
2020/12/21 02:54:45;;;;;;;2.07;1.97;;;20.30;53.40;;;;;;5049572;28;20470;-70
2020/12/21 02:57:12;;;;;;;2.23;1.90;;;20.30;53.30;;;;;;5051557;28;20470;-70
2020/12/21 02:59:38;;;;;;;2.70;2.50;;;20.30;53.40;;;;;;5046642;28;20494;-70
2020/12/21 03:02:04;;;;;;;2.20;2.00;;;20.30;53.60;;;;;;5042273;28;20844;-69
2020/12/21 03:04:30;;;;;;;2.50;2.30;;;20.30;53.80;;;;;;5052162;28;20487;-69
2020/12/21 03:06:56;;;;;;;1.97;1.87;;;20.30;54.00;;;;;;5052159;28;20490;-70
2020/12/21 03:09:22;;;;;;;4.20;2.30;;;20.30;53.90;;;;;;5049019;28;20493;-69
2020/12/21 03:11:49;;;;;;;2.50;2.30;;;20.30;53.60;;;;;;5048451;28;20481;-69
2020/12/21 03:14:15;;;;;;;1.90;1.80;;;20.30;53.80;;;;;;5046376;28;20485;-70
2020/12/21 03:16:42;;;;;;;2.27;1.43;;;20.30;53.40;;;;;;5048520;28;20485;-69
2020/12/21 03:19:08;;;;;;;2.07;1.97;;;20.30;53.30;;;;;;5050030;28;20544;-68
2020/12/21 03:21:34;;;;;;;2.27;2.10;;;20.30;53.50;;;;;;5047152;28;20487;-69
2020/12/21 03:24:00;;;;;;;1.97;1.87;;;20.30;53.50;;;;;;5047763;28;20481;-70
2020/12/21 03:26:26;;;;;;;2.20;1.90;;;20.30;53.40;;;;;;5046141;28;20494;-69
2020/12/21 03:28:53;;;;;;;2.57;2.40;;;20.30;53.40;;;;;;5059482;28;20567;-70
2020/12/21 03:31:19;;;;;;;2.30;1.93;;;20.30;53.40;;;;;;5040328;28;20540;-69
2020/12/21 03:33:45;;;;;;;1.87;1.73;;;20.30;53.40;;;;;;5061167;28;21542;-69
2020/12/21 03:36:12;;;;;;;1.70;1.70;;;20.30;53.40;;;;;;5062695;28;20871;-69
2020/12/21 03:38:38;;;;;;;1.67;1.57;;;20.20;53.50;;;;;;5080867;28;20488;-70
2020/12/21 03:41:04;;;;;;;4.80;2.30;;;20.30;53.40;;;;;;5072209;28;20503;-69
2020/12/21 03:43:30;;;;;;;2.57;2.33;;;20.20;53.60;;;;;;5076833;28;20489;-69
2020/12/21 03:45:57;;;;;;;1.60;1.50;;;20.20;53.80;;;;;;5074793;28;20477;-70
2020/12/21 03:48:23;;;;;;;3.73;2.10;;;20.20;53.70;;;;;;5075632;28;20550;-69
2020/12/21 03:50:49;;;;;;;3.20;1.50;;;20.20;53.40;;;;;;5072071;28;20564;-69
2020/12/21 03:53:15;;;;;;;2.30;1.67;;;20.30;53.40;;;;;;5065854;28;20477;-69
2020/12/21 03:55:42;;;;;;;2.60;2.40;;;20.30;53.50;;;;;;5072389;28;20481;-69
2020/12/21 03:58:08;;;;;;;2.40;1.80;;;20.30;53.50;;;;;;5076239;28;20538;-69
2020/12/21 04:00:34;;;;;;;2.23;2.00;;;20.30;53.30;;;;;;5076562;28;20495;-69
2020/12/21 04:03:01;;;;;;;1.90;1.77;;;20.30;53.30;;;;;;5073772;28;20495;-70
2020/12/21 04:05:27;;;;;;;4.73;2.40;;;20.30;53.30;;;;;;5075989;28;20489;-70
2020/12/21 04:07:53;;;;;;;6.87;2.40;;;20.20;53.40;;;;;;5072799;28;20476;-69
2020/12/21 04:10:19;;;;;;;4.30;1.93;;;20.20;54.10;;;;;;5072803;28;20511;-69
2020/12/21 04:12:46;;;;;;;3.20;2.00;;;20.20;55.30;;;;;;5074460;28;20491;-69
2020/12/21 04:15:12;;;;;;;2.23;1.80;;;20.10;55.20;;;;;;5065695;28;20899;-69
2020/12/21 04:17:39;;;;;;;2.63;1.97;;;20.20;55.40;;;;;;5054038;28;20497;-69
2020/12/21 04:20:06;;;;;;;2.77;1.67;;;20.20;55.40;;;;;;5052092;28;20486;-69
2020/12/21 04:22:32;;;;;;;2.70;1.70;;;20.20;55.30;;;;;;5052504;28;20495;-69
2020/12/21 04:24:59;;;;;;;3.30;1.70;;;20.30;55.40;;;;;;5053348;28;20496;-70
2020/12/21 04:27:25;;;;;;;2.43;1.80;;;20.30;55.40;;;;;;5051924;28;20522;-69
2020/12/21 04:29:51;;;;;;;2.20;1.57;;;20.30;55.40;;;;;;5052624;28;20483;-70
2020/12/21 04:32:17;;;;;;;1.90;1.60;;;20.20;56.10;;;;;;5049082;28;20481;-68
2020/12/21 04:34:43;;;;;;;1.53;1.53;;;20.20;56.10;;;;;;5052204;28;20477;-70
2020/12/21 04:37:11;;;;;;;2.90;1.80;;;20.20;55.30;;;;;;5050401;28;20536;-69
2020/12/21 04:39:37;;;;;;;2.50;1.90;;;20.30;55.40;;;;;;5052312;28;20478;-69
2020/12/21 04:42:03;;;;;;;3.73;2.37;;;20.30;55.40;;;;;;5049087;28;20471;-69
2020/12/21 04:44:29;;;;;;;2.90;2.07;;;20.30;55.40;;;;;;5050586;28;20481;-69
2020/12/21 04:46:55;;;;;;;2.20;2.00;;;20.30;55.40;;;;;;5052168;28;20477;-70
2020/12/21 04:49:21;;;;;;;3.33;2.20;;;20.30;55.40;;;;;;5054596;28;20486;-70
2020/12/21 04:51:49;;;;;;;4.33;2.17;;;20.30;55.50;;;;;;5049074;28;20493;-68
2020/12/21 04:54:17;;;;;;;1.93;1.83;;;20.30;55.50;;;;;;5049826;28;20482;-69
2020/12/21 04:56:43;;;;;;;3.83;1.93;;;20.30;55.50;;;;;;5044597;28;20492;-68
2020/12/21 04:59:09;;;;;;;2.97;1.57;;;20.30;55.40;;;;;;5049706;28;20497;-69
2020/12/21 05:01:35;;;;;;;1.87;1.30;;;20.20;55.30;;;;;;5039109;28;20486;-68
2020/12/21 05:04:02;;;;;;;1.67;1.57;;;20.20;55.30;;;;;;5042591;28;20490;-69
2020/12/21 05:06:28;;;;;;;3.63;1.77;;;20.20;55.30;;;;;;5051427;28;20483;-68
2020/12/21 05:09:04;;;;;;;2.33;2.10;;;20.10;55.20;;;;;;5055840;28;20516;-69
2020/12/21 05:11:31;;;;;;;3.30;1.83;;;20.10;55.20;;;;;;5055719;28;20554;-70
2020/12/21 05:14:07;;;;;;;2.27;1.90;;;20.10;55.20;;;;;;5051675;28;20864;-68
2020/12/21 05:16:33;;;;;;;3.20;1.90;;;20.20;55.30;;;;;;5049367;28;20502;-68
2020/12/21 05:18:59;;;;;;;1.97;1.57;;;20.20;55.30;;;;;;5046864;28;20477;-68
2020/12/21 05:21:28;;;;;;;1.57;1.20;;;20.20;55.30;;;;;;5047442;28;20536;-69
2020/12/21 05:23:58;;;;;;;2.87;1.90;;;20.20;55.40;;;;;;5051201;28;20486;-68
2020/12/21 05:26:28;;;;;;;5.10;2.00;;;20.20;55.30;;;;;;5051106;28;20482;-68
2020/12/21 05:28:55;;;;;;;1.87;1.77;;;20.20;55.40;;;;;;5052092;28;20873;-68
2020/12/21 05:31:22;;;;;;;2.13;2.03;;;20.30;55.40;;;;;;5049360;28;20479;-68
2020/12/21 05:33:48;;;;;;;2.67;1.43;;;20.30;55.40;;;;;;5049197;28;20516;-68
2020/12/21 05:36:15;;;;;;;2.80;2.27;;;20.40;55.50;;;;;;5050446;28;21044;-69
2020/12/21 05:38:41;;;;;;;2.17;1.60;;;20.40;55.50;;;;;;5053469;28;20481;-69
2020/12/21 05:41:08;;;;;;;1.57;1.47;;;20.40;55.50;;;;;;5049045;28;21408;-69
2020/12/21 05:43:36;;;;;;;3.57;1.70;;;20.50;55.00;;;;;;5050646;28;20573;-68
2020/12/21 05:46:07;;;;;;;1.67;1.57;;;20.60;54.70;;;;;;5049900;28;20493;-68
2020/12/21 05:48:34;;;;;;;1.87;1.70;;;20.60;54.60;;;;;;5048879;28;20490;-68
2020/12/21 05:51:01;;;;;;;1.83;1.70;;;20.60;54.30;;;;;;5052565;28;20478;-69
2020/12/21 05:53:33;;;;;;;2.60;1.87;;;20.60;54.60;;;;;;5046016;28;20918;-68
2020/12/21 05:55:59;;;;;;;2.27;2.03;;;20.50;54.20;;;;;;5050327;28;20489;-69
2020/12/21 05:58:26;;;;;;;4.43;1.97;;;20.50;54.40;;;;;;5047195;28;21036;-69
2020/12/21 06:00:52;;;;;;;5.53;1.90;;;20.40;54.10;;;;;;5048045;28;20485;-68
2020/12/21 06:03:19;;;;;;;4.20;1.90;;;20.30;54.20;;;;;;5047797;28;20516;-68
2020/12/21 06:05:45;;;;;;;3.83;2.10;;;20.30;54.60;;;;;;5069238;28;21215;-69
2020/12/21 06:08:12;;;;;;;3.53;1.83;;;20.30;54.80;;;;;;5071083;28;20477;-68
2020/12/21 06:10:38;;;;;;;3.10;1.70;;;20.20;54.70;;;;;;5070517;28;20485;-68
2020/12/21 06:13:04;;;;;;;2.27;1.77;;;20.30;55.10;;;;;;5066646;28;20974;-68
2020/12/21 06:15:30;;;;;;;2.50;1.50;;;20.30;55.40;;;;;;5065239;28;20937;-69
2020/12/21 06:17:56;;;;;;;2.03;1.83;;;20.30;55.50;;;;;;5069139;28;20489;-70
2020/12/21 06:20:23;;;;;;;2.63;1.53;;;20.30;55.50;;;;;;5066834;28;20539;-69
2020/12/21 06:22:49;;;;;;;2.40;1.80;;;20.30;55.40;;;;;;5068088;28;20488;-70
2020/12/21 06:25:22;;;;;;;6.40;1.60;;;20.30;55.40;;;;;;5069887;28;20470;-69
2020/12/21 06:27:48;;;;;;;5.70;2.80;;;20.40;55.50;;;;;;5065501;28;20880;-68
2020/12/21 06:30:16;;;;;;;10.40;3.03;;;20.40;55.60;;;;;;5070822;28;20921;-70
2020/12/21 06:32:42;;;;;;;4.77;2.20;;;20.40;55.50;;;;;;5069832;28;20489;-69
2020/12/21 06:35:18;;;;;;;3.63;1.70;;;20.40;55.50;;;;;;5070106;28;20474;-69
2020/12/21 06:37:57;;;;;;;7.23;1.73;;;20.40;54.90;;;;;;5070517;28;20492;-69
2020/12/21 06:40:29;;;;;;;2.00;1.90;;;20.40;54.40;;;;;;5073092;28;20487;-69
2020/12/21 06:42:56;;;;;;;2.40;1.97;;;20.40;54.00;;;;;;5069464;28;20485;-69
2020/12/21 06:45:22;;;;;;;3.50;1.90;;;20.40;53.90;;;;;;5067150;28;20485;-70
2020/12/21 06:47:48;;;;;;;1.67;1.50;;;20.30;53.80;;;;;;5070803;28;20476;-69
2020/12/21 06:50:14;;;;;;;5.20;2.27;;;20.30;54.00;;;;;;5070602;28;20529;-71
2020/12/21 06:52:41;;;;;;;6.13;2.20;;;20.30;53.80;;;;;;5059592;28;20481;-70
2020/12/21 06:55:08;;;;;;;4.63;2.17;;;20.20;53.70;;;;;;5067944;28;20508;-70
2020/12/21 06:57:34;;;;;;;5.30;1.90;;;20.20;53.90;;;;;;5067789;28;20498;-70
2020/12/21 07:00:00;;;;;;;2.73;2.43;;;20.10;53.70;;;;;;5068921;28;20482;-71
2020/12/21 07:02:27;;;;;;;2.87;2.63;;;20.10;53.60;;;;;;5072569;28;20496;-70
2020/12/21 07:04:53;;;;;;;4.40;2.50;;;20.10;53.90;;;;;;5068627;28;20476;-70
2020/12/21 07:07:19;;;;;;;4.90;1.93;;;20.10;53.50;;;;;;5070883;28;20485;-70
2020/12/21 07:09:45;;;;;;;3.20;2.63;;;20.20;53.30;;;;;;5069237;28;20480;-70
2020/12/21 07:12:12;;;;;;;5.93;1.90;;;20.30;53.40;;;;;;5068599;28;20465;-69
2020/12/21 07:14:39;;;;;;;4.00;2.00;;;20.30;53.60;;;;;;5070400;28;20473;-69
2020/12/21 07:17:05;;;;;;;4.27;1.63;;;20.30;53.70;;;;;;5043011;28;20481;-70
2020/12/21 07:19:32;;;;;;;2.13;1.93;;;20.30;53.80;;;;;;5062847;28;20487;-71
2020/12/21 07:21:58;;;;;;;3.07;1.60;;;20.30;54.00;;;;;;5048330;28;564903;-70
2020/12/21 07:24:25;;;;;;;2.70;1.90;;;20.30;54.10;;;;;;5069598;28;20726;-68
2020/12/21 07:26:53;;;;;;;5.20;2.10;;;20.30;54.00;;;;;;5069323;28;20481;-68
2020/12/21 07:29:20;;;;;;;1.73;1.50;;;20.30;53.90;;;;;;5070333;28;20480;-68
2020/12/21 07:31:46;;;;;;;4.20;1.80;;;20.30;53.90;;;;;;5071195;28;20472;-69
2020/12/21 07:34:12;;;;;;;1.70;1.60;;;20.40;53.90;;;;;;5068517;28;20861;-68
2020/12/21 07:36:38;;;;;;;2.20;2.00;;;20.40;53.90;;;;;;5053930;28;20481;-69
2020/12/21 07:39:08;;;;;;;2.33;1.90;;;20.40;53.80;;;;;;5057179;28;20497;-68
2020/12/21 07:41:34;;;;;;;4.50;1.83;;;20.30;53.70;;;;;;5071206;28;20542;-68
2020/12/21 07:44:02;;;;;;;2.47;1.70;;;20.30;54.00;;;;;;5068305;28;20492;-68
2020/12/21 07:46:35;;;;;;;3.07;1.43;;;20.30;54.20;;;;;;5072699;28;21046;-69
2020/12/21 07:49:01;;;;;;;4.23;1.70;;;20.30;54.20;;;;;;5069838;28;20492;-69
2020/12/21 07:51:27;;;;;;;2.87;2.43;;;20.30;54.30;;;;;;5068865;28;20998;-68
2020/12/21 07:53:53;;;;;;;1.47;1.37;;;20.30;54.70;;;;;;5070592;28;20901;-69
2020/12/21 07:56:19;;;;;;;3.17;1.57;;;20.30;54.10;;;;;;5070244;28;20484;-67
2020/12/21 07:58:47;;;;;;;1.80;1.70;;;20.30;54.10;;;;;;5066696;28;20589;-68
2020/12/21 08:01:20;;;;;;;2.40;1.30;;;20.30;54.20;;;;;;5070425;28;20565;-68
2020/12/21 08:03:47;;;;;;;1.37;1.30;;;20.30;54.20;;;;;;5058524;28;20472;-69
2020/12/21 08:06:15;;;;;;;2.10;1.47;;;20.30;54.60;;;;;;5071585;28;20577;-68
2020/12/21 08:08:41;;;;;;;3.10;1.90;;;20.30;54.30;;;;;;5071162;28;20579;-67
2020/12/21 08:11:14;;;;;;;2.77;1.53;;;20.30;54.40;;;;;;5066058;28;20480;-67
2020/12/21 08:13:45;;;;;;;5.43;1.77;;;20.30;54.50;;;;;;5075783;28;21274;-68
2020/12/21 08:16:11;;;;;;;5.63;1.67;;;20.30;54.40;;;;;;5060111;28;20868;-68
2020/12/21 08:18:38;;;;;;;2.40;1.77;;;20.30;54.40;;;;;;5071710;28;21590;-70
2020/12/21 08:21:05;;;;;;;3.80;1.63;;;20.30;54.30;;;;;;5065412;28;20559;-67
2020/12/21 08:23:31;;;;;;;1.43;1.33;;;20.20;54.40;;;;;;5074612;28;20550;-68
2020/12/21 08:25:58;;;;;;;3.20;1.60;;;20.20;54.30;;;;;;5074497;28;21505;-68
2020/12/21 08:28:25;;;;;;;4.43;1.47;;;20.30;54.20;;;;;;5074359;28;20492;-68
2020/12/21 08:31:03;;;;;;;1.17;1.07;;;20.30;54.20;;;;;;5074595;28;20585;-67
2020/12/21 08:33:29;;;;;;;1.97;1.73;;;20.30;54.20;;;;;;5068507;28;20484;-67
2020/12/21 08:35:55;;;;;;;4.67;1.97;;;20.20;54.30;;;;;;5084387;28;20858;-68
2020/12/21 08:38:23;;;;;;;3.33;1.60;;;20.20;55.20;;;;;;5075378;28;20483;-69
2020/12/21 08:40:53;;;;;;;4.90;1.37;;;20.10;54.40;;;;;;5074630;28;21044;-68
2020/12/21 08:43:20;;;;;;;5.40;2.47;;;20.10;54.90;;;;;;5052506;28;20473;-68
2020/12/21 08:45:46;;;;;;;3.53;1.80;;;20.10;54.20;;;;;;5073417;28;20507;-68
2020/12/21 08:48:12;;;;;;;1.97;1.53;;;20.10;54.00;;;;;;5042759;28;20482;-68
2020/12/21 08:50:38;;;;;;;3.80;1.73;;;20.10;54.00;;;;;;5051683;28;20491;-67
2020/12/21 08:53:04;;;;;;;6.40;1.73;;;20.10;54.00;;;;;;5048155;28;20478;-67
2020/12/21 08:55:31;;;;;;;2.87;1.40;;;20.10;53.90;;;;;;5038690;28;20489;-68
2020/12/21 08:57:57;;;;;;;2.03;1.30;;;20.10;54.10;;;;;;5047596;28;21609;-67
2020/12/21 09:00:23;;;;;;;1.43;1.20;;;20.10;54.10;;;;;;5053531;28;20489;-68
2020/12/21 09:02:50;;;;;;;2.80;1.53;;;20.00;54.00;;;;;;5050727;28;20527;-68
2020/12/21 09:05:16;;;;;;;2.07;1.17;;;20.10;53.90;;;;;;5054865;28;20496;-68
2020/12/21 09:07:42;;;;;;;1.73;1.30;;;20.10;53.80;;;;;;5048649;28;21068;-68
2020/12/21 09:10:08;;;;;;;2.30;1.70;;;20.00;53.60;;;;;;5050103;28;20904;-68
2020/12/21 09:12:35;;;;;;;1.40;1.27;;;20.00;53.40;;;;;;5041100;28;20516;-68
2020/12/21 09:15:02;;;;;;;4.10;1.50;;;20.00;53.30;;;;;;5042188;28;20493;-69
2020/12/21 09:17:28;;;;;;;3.80;1.70;;;20.00;53.10;;;;;;5048276;28;20494;-68
2020/12/21 09:19:54;;;;;;;1.50;1.40;;;20.00;53.10;;;;;;5043696;28;20547;-68
2020/12/21 09:22:20;;;;;;;3.53;1.70;;;19.90;53.20;;;;;;5048963;28;20490;-68
2020/12/21 09:24:49;;;;;;;1.90;1.57;;;19.90;53.10;;;;;;5043441;28;20483;-68
2020/12/21 09:27:15;;;;;;;2.33;1.33;;;19.90;53.40;;;;;;5049627;28;20553;-68
2020/12/21 09:29:42;;;;;;;2.63;1.20;;;19.90;53.20;;;;;;5039177;28;20483;-68
2020/12/21 09:32:08;;;;;;;3.57;1.83;;;20.00;53.30;;;;;;5049488;28;20478;-68
2020/12/21 09:34:34;;;;;;;4.77;1.70;;;20.00;53.20;;;;;;5047754;28;20500;-67
2020/12/21 09:37:02;;;;;;;1.23;1.20;;;20.10;53.10;;;;;;5052488;28;20491;-68
2020/12/21 09:39:28;;;;;;;1.47;1.20;;;20.10;53.20;;;;;;5050669;28;20486;-68
2020/12/21 09:41:55;;;;;;;2.50;1.37;;;20.20;52.90;;;;;;5052532;28;20470;-68
2020/12/21 09:44:21;;;;;;;1.83;1.30;;;20.20;52.80;;;;;;5050154;28;20489;-67
2020/12/21 09:46:50;;;;;;;1.73;1.40;;;20.30;52.70;;;;;;5037274;28;20475;-67
2020/12/21 09:49:16;;;;;;;5.17;1.80;;;20.30;52.60;;;;;;5050779;28;20474;-68
2020/12/21 09:51:42;;;;;;;7.50;1.77;;;20.30;52.50;;;;;;5053290;28;20510;-68
2020/12/21 09:54:08;;;;;;;2.30;1.73;;;20.30;52.50;;;;;;5046183;28;20479;-68
2020/12/21 09:56:34;;;;;;;3.10;1.40;;;20.30;52.30;;;;;;5049289;28;20521;-69
2020/12/21 09:59:00;;;;;;;3.00;1.50;;;20.30;52.20;;;;;;5042180;28;20482;-68
2020/12/21 10:01:27;;;;;;;2.17;1.70;;;20.30;52.10;;;;;;5048259;28;20497;-68
2020/12/21 10:03:54;;;;;;;1.47;1.37;;;20.40;52.10;;;;;;5048612;28;21101;-67
2020/12/21 10:06:21;;;;;;;1.40;1.30;;;20.40;52.00;;;;;;5045051;28;20552;-68
2020/12/21 10:08:47;;;;;;;2.03;1.17;;;20.40;52.10;;;;;;5045813;28;20486;-69
2020/12/21 10:11:16;;;;;;;3.60;1.20;;;20.50;52.10;;;;;;5036735;28;20493;-67
2020/12/21 10:13:43;;;;;;;1.80;1.17;;;20.50;52.10;;;;;;5021819;28;20926;-68
2020/12/21 10:16:09;;;;;;;2.33;1.03;;;20.50;52.20;;;;;;5048809;28;20937;-68
2020/12/21 10:18:35;;;;;;;1.13;1.03;;;20.50;52.30;;;;;;5051535;28;20486;-67
2020/12/21 10:21:02;;;;;;;1.40;1.30;;;20.50;52.20;;;;;;5050020;28;20481;-68
2020/12/21 10:23:28;;;;;;;1.93;1.10;;;20.50;52.30;;;;;;5049338;28;20469;-67
2020/12/21 10:25:54;;;;;;;3.80;1.83;;;20.50;52.40;;;;;;5045554;28;20981;-67
2020/12/21 10:28:21;;;;;;;1.63;1.20;;;20.40;52.50;;;;;;5044215;28;20493;-68
2020/12/21 10:30:47;;;;;;;3.93;1.43;;;20.40;52.50;;;;;;5035123;28;20490;-68
2020/12/21 10:33:13;;;;;;;4.00;1.40;;;20.40;52.60;;;;;;5047688;28;20520;-67
2020/12/21 10:35:39;;;;;;;5.87;1.50;;;20.40;52.60;;;;;;5048732;28;20478;-68
2020/12/21 10:38:06;;;;;;;1.70;1.00;;;20.30;52.60;;;;;;5043714;28;20483;-67
2020/12/21 10:40:32;;;;;;;5.70;1.23;;;20.30;52.90;;;;;;5030194;28;20486;-67
2020/12/21 10:42:58;;;;;;;2.00;1.20;;;20.30;52.90;;;;;;5064812;28;20481;-67
2020/12/21 10:45:24;;;;;;;1.63;1.07;;;20.30;53.00;;;;;;5070847;28;20899;-67
2020/12/21 10:47:51;;;;;;;1.33;1.23;;;20.30;53.10;;;;;;5065635;28;20566;-69
2020/12/21 10:50:17;;;;;;;1.77;1.33;;;20.30;53.10;;;;;;5083010;28;20526;-68
2020/12/21 10:52:43;;;;;;;1.13;1.00;;;20.30;53.20;;;;;;5068504;28;20465;-68
2020/12/21 10:55:10;;;;;;;1.40;1.40;;;20.30;53.20;;;;;;5074842;28;20481;-68
2020/12/21 10:57:36;;;;;;;1.37;1.27;;;20.30;53.10;;;;;;5058086;28;20476;-68
2020/12/21 11:00:03;;;;;;;1.57;1.47;;;20.30;53.10;;;;;;5070279;28;20541;-68
2020/12/21 11:02:29;;;;;;;1.50;1.40;;;20.30;53.00;;;;;;5069930;28;20886;-68
2020/12/21 11:04:55;;;;;;;1.67;1.50;;;20.30;53.00;;;;;;5065983;28;20473;-67
2020/12/21 11:07:22;;;;;;;6.63;1.43;;;20.40;52.90;;;;;;5067044;28;20497;-66
2020/12/21 11:09:48;;;;;;;2.90;1.10;;;20.40;52.80;;;;;;5056005;28;20527;-68
2020/12/21 11:12:15;;;;;;;5.53;0.83;;;20.40;52.70;;;;;;5069682;28;20484;-68
2020/12/21 11:14:41;;;;;;;1.97;1.53;;;20.40;52.80;;;;;;5064734;28;20515;-68
2020/12/21 11:17:08;;;;;;;1.10;1.10;;;20.40;52.80;;;;;;5044471;28;20485;-68
2020/12/21 11:19:34;;;;;;;1.13;1.13;;;20.30;52.90;;;;;;5050146;28;20551;-67
2020/12/21 11:22:00;;;;;;;1.80;1.33;;;20.30;53.00;;;;;;5019634;28;20925;-69
2020/12/21 11:24:28;;;;;;;1.40;1.40;;;20.30;53.10;;;;;;5064358;28;20863;-68
2020/12/21 11:26:54;;;;;;;1.37;1.20;;;20.30;53.20;;;;;;5073354;28;20479;-67
2020/12/21 11:29:21;;;;;;;4.77;1.23;;;20.20;53.20;;;;;;5064332;28;20492;-68
2020/12/21 11:31:47;;;;;;;1.50;1.40;;;20.30;53.20;;;;;;5058275;28;21509;-67
2020/12/21 11:34:13;;;;;;;3.87;1.23;;;20.30;53.20;;;;;;5060763;28;20517;-68
2020/12/21 11:36:42;;;;;;;1.40;1.30;;;20.30;53.00;;;;;;5067414;28;20539;-68
2020/12/21 11:39:08;;;;;;;0.70;0.70;;;20.30;53.00;;;;;;5058724;28;20481;-69
2020/12/21 11:41:35;;;;;;;3.43;1.40;;;20.30;53.10;;;;;;5052800;28;20493;-68
2020/12/21 11:44:01;;;;;;;1.27;1.03;;;20.20;53.20;;;;;;5057501;28;20507;-69
2020/12/21 11:46:31;;;;;;;1.30;1.23;;;20.30;53.20;;;;;;5066098;28;21214;-69
2020/12/21 11:48:57;;;;;;;1.70;1.13;;;20.20;53.20;;;;;;5059027;28;20546;-69
2020/12/21 11:51:24;;;;;;;4.83;1.97;;;20.20;53.20;;;;;;5048222;28;20589;-69
2020/12/21 11:53:50;;;;;;;1.63;1.30;;;20.20;53.30;;;;;;5037035;28;20493;-68
2020/12/21 11:56:17;;;;;;;1.23;1.20;;;20.20;53.30;;;;;;5047991;28;20500;-70
2020/12/21 11:58:43;;;;;;;1.43;1.00;;;20.20;53.30;;;;;;5040991;28;20524;-69
2020/12/21 12:01:09;;;;;;;1.00;1.00;;;20.20;53.30;;;;;;5032948;28;20488;-68
2020/12/21 12:03:36;;;;;;;1.33;1.00;;;20.20;53.20;;;;;;5050124;28;20496;-69
2020/12/21 12:06:02;;;;;;;1.47;1.37;;;20.20;53.10;;;;;;5045806;28;20547;-68
2020/12/21 12:08:28;;;;;;;1.00;1.00;;;20.20;53.10;;;;;;5060800;28;20508;-68
2020/12/21 12:10:54;;;;;;;2.50;1.40;;;20.20;53.20;;;;;;5069011;28;20479;-69
2020/12/21 12:13:21;;;;;;;1.37;1.20;;;20.20;53.10;;;;;;5004506;28;20485;-69
2020/12/21 12:15:49;;;;;;;1.30;1.20;;;20.20;53.10;;;;;;5068963;28;20922;-69
2020/12/21 12:18:15;;;;;;;1.70;1.27;;;20.20;53.20;;;;;;5057930;28;20546;-68
2020/12/21 12:20:42;;;;;;;2.20;1.00;;;20.20;53.30;;;;;;5046921;28;20482;-70
2020/12/21 12:23:08;;;;;;;2.27;1.20;;;20.20;53.60;;;;;;5070696;28;20527;-67
2020/12/21 12:25:34;;;;;;;0.93;0.93;;;20.20;54.40;;;;;;5062441;28;21370;-70
2020/12/21 12:28:00;;;;;;;2.70;1.10;;;20.20;55.40;;;;;;5070950;28;21128;-68
2020/12/21 12:30:26;;;;;;;3.43;1.30;;;20.20;55.40;;;;;;5071129;28;20493;-68
2020/12/21 12:32:53;;;;;;;1.47;1.30;;;20.20;55.30;;;;;;5068929;28;20497;-68
2020/12/21 12:35:19;;;;;;;5.90;1.33;;;20.20;55.30;;;;;;5073819;28;20481;-68
2020/12/21 12:37:46;;;;;;;4.67;1.00;;;20.20;55.30;;;;;;5072774;28;20480;-68
2020/12/21 12:40:12;;;;;;;2.07;1.10;;;20.10;55.30;;;;;;5052272;28;20505;-68
2020/12/21 12:42:38;;;;;;;2.83;1.40;;;20.10;55.20;;;;;;5051712;28;20473;-68
2020/12/21 12:45:05;;;;;;;3.70;1.27;;;20.10;55.20;;;;;;5045558;28;20482;-67